sensor_id;sensor_type;location;lat;lon;timestamp;temperature;humidity
42095;DHT22;27753;55.724;37.612;2023-02-17T00:01:08;-4.30;90.70
42095;DHT22;27753;55.724;37.612;2023-02-17T00:03:34;-4.30;90.30
42095;DHT22;27753;55.724;37.612;2023-02-17T00:06:07;-4.40;90.30
42095;DHT22;27753;55.724;37.612;2023-02-17T00:08:33;-4.40;90.30
42095;DHT22;27753;55.724;37.612;2023-02-17T00:11:11;-4.50;90.30
42095;DHT22;27753;55.724;37.612;2023-02-17T00:13:56;-4.50;90.40
42095;DHT22;27753;55.724;37.612;2023-02-17T00:16:28;-4.50;90.50
42095;DHT22;27753;55.724;37.612;2023-02-17T00:18:59;-4.50;90.50
42095;DHT22;27753;55.724;37.612;2023-02-17T00:21:27;-4.40;90.70
42095;DHT22;27753;55.724;37.612;2023-02-17T00:23:53;-4.40;90.60
42095;DHT22;27753;55.724;37.612;2023-02-17T00:26:20;-4.40;90.60
42095;DHT22;27753;55.724;37.612;2023-02-17T00:28:47;-4.40;90.60
42095;DHT22;27753;55.724;37.612;2023-02-17T00:31:17;-4.40;90.60
42095;DHT22;27753;55.724;37.612;2023-02-17T00:33:44;-4.40;90.50
42095;DHT22;27753;55.724;37.612;2023-02-17T00:36:22;-4.40;90.60
42095;DHT22;27753;55.724;37.612;2023-02-17T00:38:58;-4.30;90.80
42095;DHT22;27753;55.724;37.612;2023-02-17T00:41:25;-4.40;90.60
42095;DHT22;27753;55.724;37.612;2023-02-17T00:43:52;-4.40;90.50
42095;DHT22;27753;55.724;37.612;2023-02-17T00:46:18;-4.50;90.40
42095;DHT22;27753;55.724;37.612;2023-02-17T00:48:44;-4.50;90.60
42095;DHT22;27753;55.724;37.612;2023-02-17T00:51:10;-4.50;90.80
42095;DHT22;27753;55.724;37.612;2023-02-17T00:53:37;-4.50;90.80
42095;DHT22;27753;55.724;37.612;2023-02-17T00:56:03;-4.40;90.80
42095;DHT22;27753;55.724;37.612;2023-02-17T00:58:30;-4.40;90.80
42095;DHT22;27753;55.724;37.612;2023-02-17T01:00:56;-4.40;90.80
42095;DHT22;27753;55.724;37.612;2023-02-17T01:03:23;-4.40;91.00
42095;DHT22;27753;55.724;37.612;2023-02-17T01:05:52;-4.40;90.80
42095;DHT22;27753;55.724;37.612;2023-02-17T01:08:38;-4.40;90.80
42095;DHT22;27753;55.724;37.612;2023-02-17T01:11:04;-4.40;90.80
42095;DHT22;27753;55.724;37.612;2023-02-17T01:13:29;-4.40;90.70
42095;DHT22;27753;55.724;37.612;2023-02-17T01:15:55;-4.40;90.80
42095;DHT22;27753;55.724;37.612;2023-02-17T01:18:23;-4.40;90.70
42095;DHT22;27753;55.724;37.612;2023-02-17T01:20:55;-4.50;90.50
42095;DHT22;27753;55.724;37.612;2023-02-17T01:23:21;-4.60;90.80
42095;DHT22;27753;55.724;37.612;2023-02-17T01:25:47;-4.60;90.60
42095;DHT22;27753;55.724;37.612;2023-02-17T01:28:18;-4.70;90.70
42095;DHT22;27753;55.724;37.612;2023-02-17T01:30:45;-4.70;90.80
42095;DHT22;27753;55.724;37.612;2023-02-17T01:33:11;-4.60;90.90
42095;DHT22;27753;55.724;37.612;2023-02-17T01:35:36;-4.50;90.90
42095;DHT22;27753;55.724;37.612;2023-02-17T01:38:02;-4.60;90.70
42095;DHT22;27753;55.724;37.612;2023-02-17T01:40:28;-4.60;90.70
42095;DHT22;27753;55.724;37.612;2023-02-17T01:42:54;-4.60;90.90
42095;DHT22;27753;55.724;37.612;2023-02-17T01:47:55;-4.40;91.00
42095;DHT22;27753;55.724;37.612;2023-02-17T01:50:25;-4.40;91.00
42095;DHT22;27753;55.724;37.612;2023-02-17T01:52:53;-4.30;90.90
42095;DHT22;27753;55.724;37.612;2023-02-17T01:55:21;-4.30;90.90
42095;DHT22;27753;55.724;37.612;2023-02-17T01:57:48;-4.30;90.80
42095;DHT22;27753;55.724;37.612;2023-02-17T02:00:16;-4.30;90.90
42095;DHT22;27753;55.724;37.612;2023-02-17T02:02:45;-4.30;90.80
42095;DHT22;27753;55.724;37.612;2023-02-17T02:05:13;-4.20;90.70
42095;DHT22;27753;55.724;37.612;2023-02-17T02:07:40;-4.30;90.70
42095;DHT22;27753;55.724;37.612;2023-02-17T02:10:09;-4.20;90.80
42095;DHT22;27753;55.724;37.612;2023-02-17T02:12:37;-4.20;90.70
42095;DHT22;27753;55.724;37.612;2023-02-17T02:15:08;-4.20;90.80
42095;DHT22;27753;55.724;37.612;2023-02-17T02:34:07;-4.50;90.70
42095;DHT22;27753;55.724;37.612;2023-02-17T02:36:51;-4.50;91.00
42095;DHT22;27753;55.724;37.612;2023-02-17T02:39:20;-4.50;91.00
42095;DHT22;27753;55.724;37.612;2023-02-17T02:41:55;-4.60;91.00
42095;DHT22;27753;55.724;37.612;2023-02-17T02:44:23;-4.60;91.20
42095;DHT22;27753;55.724;37.612;2023-02-17T02:46:57;-4.60;91.30
42095;DHT22;27753;55.724;37.612;2023-02-17T02:49:23;-4.50;91.50
42095;DHT22;27753;55.724;37.612;2023-02-17T02:52:09;-4.50;91.50
42095;DHT22;27753;55.724;37.612;2023-02-17T02:55:06;-4.40;91.60
42095;DHT22;27753;55.724;37.612;2023-02-17T03:00:18;-4.30;91.60
42095;DHT22;27753;55.724;37.612;2023-02-17T03:08:13;-4.30;91.60
42095;DHT22;27753;55.724;37.612;2023-02-17T03:10:45;-4.30;91.60
42095;DHT22;27753;55.724;37.612;2023-02-17T03:13:16;-4.30;91.60
42095;DHT22;27753;55.724;37.612;2023-02-17T03:15:43;-4.20;91.60
42095;DHT22;27753;55.724;37.612;2023-02-17T03:18:09;-4.30;91.60
42095;DHT22;27753;55.724;37.612;2023-02-17T03:20:39;-4.30;91.70
42095;DHT22;27753;55.724;37.612;2023-02-17T03:23:08;-4.20;91.80
42095;DHT22;27753;55.724;37.612;2023-02-17T03:25:35;-4.20;91.80
42095;DHT22;27753;55.724;37.612;2023-02-17T03:28:01;-4.20;91.70
42095;DHT22;27753;55.724;37.612;2023-02-17T03:30:27;-4.20;91.80
42095;DHT22;27753;55.724;37.612;2023-02-17T03:32:53;-4.10;91.80
42095;DHT22;27753;55.724;37.612;2023-02-17T03:35:19;-4.10;91.80
42095;DHT22;27753;55.724;37.612;2023-02-17T03:37:45;-4.10;91.70
42095;DHT22;27753;55.724;37.612;2023-02-17T03:40:11;-4.10;91.80
42095;DHT22;27753;55.724;37.612;2023-02-17T03:42:37;-4.20;91.60
42095;DHT22;27753;55.724;37.612;2023-02-17T03:45:04;-4.20;91.60
42095;DHT22;27753;55.724;37.612;2023-02-17T03:47:30;-4.30;91.50
42095;DHT22;27753;55.724;37.612;2023-02-17T03:49:56;-4.30;91.70
42095;DHT22;27753;55.724;37.612;2023-02-17T03:52:21;-4.30;91.90
42095;DHT22;27753;55.724;37.612;2023-02-17T03:54:47;-4.30;91.90
42095;DHT22;27753;55.724;37.612;2023-02-17T03:57:13;-4.20;91.90
42095;DHT22;27753;55.724;37.612;2023-02-17T03:59:39;-4.10;91.90
42095;DHT22;27753;55.724;37.612;2023-02-17T04:02:05;-4.10;91.80
42095;DHT22;27753;55.724;37.612;2023-02-17T04:04:31;-4.10;91.90
42095;DHT22;27753;55.724;37.612;2023-02-17T04:06:57;-4.10;91.90
42095;DHT22;27753;55.724;37.612;2023-02-17T04:09:22;-4.10;91.80
42095;DHT22;27753;55.724;37.612;2023-02-17T04:11:48;-4.10;91.80
42095;DHT22;27753;55.724;37.612;2023-02-17T04:14:14;-4.20;91.80
42095;DHT22;27753;55.724;37.612;2023-02-17T04:16:40;-4.20;91.80
42095;DHT22;27753;55.724;37.612;2023-02-17T04:19:06;-4.20;91.90
42095;DHT22;27753;55.724;37.612;2023-02-17T04:21:33;-4.20;92.00
42095;DHT22;27753;55.724;37.612;2023-02-17T04:24:00;-4.20;92.10
42095;DHT22;27753;55.724;37.612;2023-02-17T04:26:26;-4.20;92.00
42095;DHT22;27753;55.724;37.612;2023-02-17T04:28:52;-4.30;91.90
42095;DHT22;27753;55.724;37.612;2023-02-17T04:31:18;-4.30;92.00
42095;DHT22;27753;55.724;37.612;2023-02-17T04:33:44;-4.30;92.10
42095;DHT22;27753;55.724;37.612;2023-02-17T04:36:10;-4.30;92.20
42095;DHT22;27753;55.724;37.612;2023-02-17T04:38:37;-4.30;92.30
42095;DHT22;27753;55.724;37.612;2023-02-17T04:41:03;-4.30;92.50
42095;DHT22;27753;55.724;37.612;2023-02-17T04:43:30;-4.30;92.60
42095;DHT22;27753;55.724;37.612;2023-02-17T04:45:57;-4.30;92.70
42095;DHT22;27753;55.724;37.612;2023-02-17T04:48:23;-4.30;92.60
42095;DHT22;27753;55.724;37.612;2023-02-17T04:50:49;-4.30;92.70
42095;DHT22;27753;55.724;37.612;2023-02-17T04:53:15;-4.30;92.80
42095;DHT22;27753;55.724;37.612;2023-02-17T04:55:42;-4.20;92.70
42095;DHT22;27753;55.724;37.612;2023-02-17T04:58:08;-4.30;92.70
42095;DHT22;27753;55.724;37.612;2023-02-17T05:00:40;-4.30;92.70
42095;DHT22;27753;55.724;37.612;2023-02-17T05:03:09;-4.40;92.80
42095;DHT22;27753;55.724;37.612;2023-02-17T05:05:35;-4.40;92.80
42095;DHT22;27753;55.724;37.612;2023-02-17T05:08:00;-4.40;92.80
42095;DHT22;27753;55.724;37.612;2023-02-17T05:10:26;-4.50;92.80
42095;DHT22;27753;55.724;37.612;2023-02-17T05:12:52;-4.50;93.00
42095;DHT22;27753;55.724;37.612;2023-02-17T05:15:18;-4.50;93.00
42095;DHT22;27753;55.724;37.612;2023-02-17T05:17:44;-4.40;93.10
42095;DHT22;27753;55.724;37.612;2023-02-17T05:20:10;-4.40;93.10
42095;DHT22;27753;55.724;37.612;2023-02-17T05:22:36;-4.40;93.20
42095;DHT22;27753;55.724;37.612;2023-02-17T05:25:02;-4.30;93.20
42095;DHT22;27753;55.724;37.612;2023-02-17T05:27:29;-4.30;93.20
42095;DHT22;27753;55.724;37.612;2023-02-17T05:29:54;-4.30;93.20
42095;DHT22;27753;55.724;37.612;2023-02-17T05:32:23;-4.30;93.30
42095;DHT22;27753;55.724;37.612;2023-02-17T05:34:49;-4.20;93.40
42095;DHT22;27753;55.724;37.612;2023-02-17T05:37:14;-4.10;93.40
42095;DHT22;27753;55.724;37.612;2023-02-17T05:39:41;-4.10;93.40
42095;DHT22;27753;55.724;37.612;2023-02-17T05:42:07;-4.00;93.40
42095;DHT22;27753;55.724;37.612;2023-02-17T05:44:33;-4.00;93.40
42095;DHT22;27753;55.724;37.612;2023-02-17T05:46:59;-4.00;93.30
42095;DHT22;27753;55.724;37.612;2023-02-17T05:49:25;-3.90;93.40
42095;DHT22;27753;55.724;37.612;2023-02-17T05:51:51;-3.90;93.40
42095;DHT22;27753;55.724;37.612;2023-02-17T05:54:18;-3.80;93.60
42095;DHT22;27753;55.724;37.612;2023-02-17T05:56:44;-3.80;93.50
42095;DHT22;27753;55.724;37.612;2023-02-17T05:59:10;-3.70;93.50
42095;DHT22;27753;55.724;37.612;2023-02-17T06:01:36;-3.80;93.30
42095;DHT22;27753;55.724;37.612;2023-02-17T06:04:03;-3.80;93.40
42095;DHT22;27753;55.724;37.612;2023-02-17T06:06:29;-3.80;93.60
42095;DHT22;27753;55.724;37.612;2023-02-17T06:08:55;-3.70;93.70
42095;DHT22;27753;55.724;37.612;2023-02-17T06:11:22;-3.70;93.50
42095;DHT22;27753;55.724;37.612;2023-02-17T06:13:48;-3.70;93.30
42095;DHT22;27753;55.724;37.612;2023-02-17T06:16:14;-3.60;93.40
42095;DHT22;27753;55.724;37.612;2023-02-17T06:18:40;-3.60;93.30
42095;DHT22;27753;55.724;37.612;2023-02-17T06:21:06;-3.60;93.00
42095;DHT22;27753;55.724;37.612;2023-02-17T06:23:32;-3.60;93.00
42095;DHT22;27753;55.724;37.612;2023-02-17T06:25:58;-3.50;93.00
42095;DHT22;27753;55.724;37.612;2023-02-17T06:28:24;-3.50;92.80
42095;DHT22;27753;55.724;37.612;2023-02-17T06:30:50;-3.40;92.80
42095;DHT22;27753;55.724;37.612;2023-02-17T06:33:16;-3.40;92.70
42095;DHT22;27753;55.724;37.612;2023-02-17T06:35:42;-3.30;92.60
42095;DHT22;27753;55.724;37.612;2023-02-17T06:38:12;-3.30;92.60
42095;DHT22;27753;55.724;37.612;2023-02-17T06:40:38;-3.30;92.40
42095;DHT22;27753;55.724;37.612;2023-02-17T06:43:05;-3.40;92.40
42095;DHT22;27753;55.724;37.612;2023-02-17T06:45:31;-3.30;92.60
42095;DHT22;27753;55.724;37.612;2023-02-17T06:47:57;-3.30;92.60
42095;DHT22;27753;55.724;37.612;2023-02-17T06:50:23;-3.20;92.60
42095;DHT22;27753;55.724;37.612;2023-02-17T06:52:49;-3.20;92.60
42095;DHT22;27753;55.724;37.612;2023-02-17T06:55:15;-3.20;92.60
42095;DHT22;27753;55.724;37.612;2023-02-17T06:57:41;-3.30;92.40
42095;DHT22;27753;55.724;37.612;2023-02-17T07:00:08;-3.30;92.50
42095;DHT22;27753;55.724;37.612;2023-02-17T07:02:36;-3.30;92.60
42095;DHT22;27753;55.724;37.612;2023-02-17T07:05:02;-3.20;92.60
42095;DHT22;27753;55.724;37.612;2023-02-17T07:07:28;-3.30;92.60
42095;DHT22;27753;55.724;37.612;2023-02-17T07:09:55;-3.20;92.70
42095;DHT22;27753;55.724;37.612;2023-02-17T07:12:21;-3.30;92.70
42095;DHT22;27753;55.724;37.612;2023-02-17T07:14:47;-3.40;92.70
42095;DHT22;27753;55.724;37.612;2023-02-17T07:17:12;-3.40;92.60
42095;DHT22;27753;55.724;37.612;2023-02-17T07:19:38;-3.40;92.70
42095;DHT22;27753;55.724;37.612;2023-02-17T07:22:04;-3.30;92.70
42095;DHT22;27753;55.724;37.612;2023-02-17T07:24:30;-3.30;92.80
42095;DHT22;27753;55.724;37.612;2023-02-17T07:26:58;-3.30;92.70
42095;DHT22;27753;55.724;37.612;2023-02-17T07:29:26;-3.30;92.60
42095;DHT22;27753;55.724;37.612;2023-02-17T07:31:52;-3.30;92.30
42095;DHT22;27753;55.724;37.612;2023-02-17T07:34:18;-3.40;92.60
42095;DHT22;27753;55.724;37.612;2023-02-17T07:36:44;-3.40;92.70
42095;DHT22;27753;55.724;37.612;2023-02-17T07:39:10;-3.50;92.70
42095;DHT22;27753;55.724;37.612;2023-02-17T07:41:36;-3.60;92.50
42095;DHT22;27753;55.724;37.612;2023-02-17T07:44:02;-3.70;92.50
42095;DHT22;27753;55.724;37.612;2023-02-17T07:46:28;-3.70;92.60
42095;DHT22;27753;55.724;37.612;2023-02-17T07:48:56;-3.70;92.70
42095;DHT22;27753;55.724;37.612;2023-02-17T07:51:23;-3.60;92.80
42095;DHT22;27753;55.724;37.612;2023-02-17T07:53:51;-3.40;92.60
42095;DHT22;27753;55.724;37.612;2023-02-17T07:56:22;-3.30;92.20
42095;DHT22;27753;55.724;37.612;2023-02-17T07:58:49;-3.30;92.20
42095;DHT22;27753;55.724;37.612;2023-02-17T08:01:20;-3.10;92.10
42095;DHT22;27753;55.724;37.612;2023-02-17T08:03:47;-2.70;92.10
42095;DHT22;27753;55.724;37.612;2023-02-17T08:06:16;-2.40;91.80
42095;DHT22;27753;55.724;37.612;2023-02-17T08:08:43;-2.00;91.20
42095;DHT22;27753;55.724;37.612;2023-02-17T08:11:28;-1.80;90.60
42095;DHT22;27753;55.724;37.612;2023-02-17T08:14:13;-1.70;90.60
42095;DHT22;27753;55.724;37.612;2023-02-17T08:16:39;-1.30;90.40
42095;DHT22;27753;55.724;37.612;2023-02-17T08:19:05;-1.00;90.20
42095;DHT22;27753;55.724;37.612;2023-02-17T08:21:32;-0.70;89.50
42095;DHT22;27753;55.724;37.612;2023-02-17T08:23:58;-0.40;88.30
42095;DHT22;27753;55.724;37.612;2023-02-17T08:26:24;-0.40;86.00
42095;DHT22;27753;55.724;37.612;2023-02-17T08:28:51;-0.60;84.40
42095;DHT22;27753;55.724;37.612;2023-02-17T08:31:23;0.00;86.80
42095;DHT22;27753;55.724;37.612;2023-02-17T08:33:50;0.70;85.10
42095;DHT22;27753;55.724;37.612;2023-02-17T08:38:44;2.00;81.00
42095;DHT22;27753;55.724;37.612;2023-02-17T08:41:28;3.10;79.20
42095;DHT22;27753;55.724;37.612;2023-02-17T08:43:55;3.10;72.50
42095;DHT22;27753;55.724;37.612;2023-02-17T08:46:22;3.10;73.70
42095;DHT22;27753;55.724;37.612;2023-02-17T08:48:49;3.50;72.30
42095;DHT22;27753;55.724;37.612;2023-02-17T08:51:18;3.60;71.00
42095;DHT22;27753;55.724;37.612;2023-02-17T08:53:49;3.70;70.90
42095;DHT22;27753;55.724;37.612;2023-02-17T08:56:15;3.50;69.50
42095;DHT22;27753;55.724;37.612;2023-02-17T08:58:41;2.70;68.50
42095;DHT22;27753;55.724;37.612;2023-02-17T09:01:07;1.90;70.50
42095;DHT22;27753;55.724;37.612;2023-02-17T09:03:35;1.90;72.80
42095;DHT22;27753;55.724;37.612;2023-02-17T09:06:04;1.80;71.80
42095;DHT22;27753;55.724;37.612;2023-02-17T09:08:33;1.80;73.90
42095;DHT22;27753;55.724;37.612;2023-02-17T09:10:59;1.90;72.80
42095;DHT22;27753;55.724;37.612;2023-02-17T09:13:26;1.70;72.70
42095;DHT22;27753;55.724;37.612;2023-02-17T09:15:55;1.20;72.90
42095;DHT22;27753;55.724;37.612;2023-02-17T09:18:23;0.60;74.00
42095;DHT22;27753;55.724;37.612;2023-02-17T09:20:50;0.30;75.20
42095;DHT22;27753;55.724;37.612;2023-02-17T09:23:17;0.10;76.10
42095;DHT22;27753;55.724;37.612;2023-02-17T09:25:43;-0.10;77.00
42095;DHT22;27753;55.724;37.612;2023-02-17T09:28:11;-0.30;77.80
42095;DHT22;27753;55.724;37.612;2023-02-17T09:30:39;-0.40;78.50
42095;DHT22;27753;55.724;37.612;2023-02-17T09:33:04;-0.60;78.60
42095;DHT22;27753;55.724;37.612;2023-02-17T09:35:31;-1.10;79.80
42095;DHT22;27753;55.724;37.612;2023-02-17T09:37:57;-1.40;81.10
42095;DHT22;27753;55.724;37.612;2023-02-17T09:42:54;-1.60;82.30
42095;DHT22;27753;55.724;37.612;2023-02-17T09:45:26;-1.60;83.20
42095;DHT22;27753;55.724;37.612;2023-02-17T09:48:00;-1.60;83.00
42095;DHT22;27753;55.724;37.612;2023-02-17T09:53:34;-2.10;84.00
42095;DHT22;27753;55.724;37.612;2023-02-17T09:55:58;-2.10;84.40
42095;DHT22;27753;55.724;37.612;2023-02-17T10:00:57;-1.70;84.80
42095;DHT22;27753;55.724;37.612;2023-02-17T10:03:36;-1.60;84.40
42095;DHT22;27753;55.724;37.612;2023-02-17T10:09:05;-1.50;83.50
42095;DHT22;27753;55.724;37.612;2023-02-17T10:11:46;-1.70;83.10
42095;DHT22;27753;55.724;37.612;2023-02-17T10:17:12;-2.20;84.80
42095;DHT22;27753;55.724;37.612;2023-02-17T10:20:30;-2.30;84.80
42095;DHT22;27753;55.724;37.612;2023-02-17T10:22:36;-2.50;85.10
42095;DHT22;27753;55.724;37.612;2023-02-17T10:25:16;-2.60;85.30
42095;DHT22;27753;55.724;37.612;2023-02-17T10:27:54;-2.60;85.70
42095;DHT22;27753;55.724;37.612;2023-02-17T10:30:39;-2.80;86.20
42095;DHT22;27753;55.724;37.612;2023-02-17T10:35:52;-2.70;86.90
42095;DHT22;27753;55.724;37.612;2023-02-17T10:38:44;-2.50;87.10
42095;DHT22;27753;55.724;37.612;2023-02-17T10:41:16;-2.40;87.00
42095;DHT22;27753;55.724;37.612;2023-02-17T10:43:44;-2.40;86.50
42095;DHT22;27753;55.724;37.612;2023-02-17T10:46:12;-2.40;86.70
42095;DHT22;27753;55.724;37.612;2023-02-17T10:48:47;-2.40;87.00
42095;DHT22;27753;55.724;37.612;2023-02-17T10:51:17;-2.30;87.30
42095;DHT22;27753;55.724;37.612;2023-02-17T10:54:12;-2.30;86.90
42095;DHT22;27753;55.724;37.612;2023-02-17T10:56:45;-2.30;86.80
42095;DHT22;27753;55.724;37.612;2023-02-17T11:01:45;-2.10;87.00
42095;DHT22;27753;55.724;37.612;2023-02-17T11:04:11;-2.00;86.50
42095;DHT22;27753;55.724;37.612;2023-02-17T11:12:12;-2.40;86.40
42095;DHT22;27753;55.724;37.612;2023-02-17T11:14:50;-2.30;86.90
42095;DHT22;27753;55.724;37.612;2023-02-17T11:17:27;-2.30;86.60
42095;DHT22;27753;55.724;37.612;2023-02-17T11:22:45;-2.40;86.20
42095;DHT22;27753;55.724;37.612;2023-02-17T11:25:23;-2.30;86.90
42095;DHT22;27753;55.724;37.612;2023-02-17T11:27:55;-2.10;86.90
42095;DHT22;27753;55.724;37.612;2023-02-17T11:30:23;-1.80;86.80
42095;DHT22;27753;55.724;37.612;2023-02-17T11:32:49;-2.00;86.90
42095;DHT22;27753;55.724;37.612;2023-02-17T11:38:21;-2.50;89.90
42095;DHT22;27753;55.724;37.612;2023-02-17T11:40:58;-2.60;90.30
42095;DHT22;27753;55.724;37.612;2023-02-17T11:43:26;-2.70;90.50
42095;DHT22;27753;55.724;37.612;2023-02-17T11:52:10;-2.20;90.40
42095;DHT22;27753;55.724;37.612;2023-02-17T11:55:02;-2.00;90.10
42095;DHT22;27753;55.724;37.612;2023-02-17T12:06:00;-2.40;90.00
42095;DHT22;27753;55.724;37.612;2023-02-17T12:11:48;-2.20;90.20
42095;DHT22;27753;55.724;37.612;2023-02-17T12:17:59;-2.50;89.90
42095;DHT22;27753;55.724;37.612;2023-02-17T12:25:36;-3.00;90.40
42095;DHT22;27753;55.724;37.612;2023-02-17T12:30:32;-3.00;90.90
42095;DHT22;27753;55.724;37.612;2023-02-17T12:33:32;-2.80;91.00
42095;DHT22;27753;55.724;37.612;2023-02-17T12:36:07;-2.70;90.80
42095;DHT22;27753;55.724;37.612;2023-02-17T12:38:40;-2.80;90.60
42095;DHT22;27753;55.724;37.612;2023-02-17T12:41:17;-2.90;90.50
42095;DHT22;27753;55.724;37.612;2023-02-17T12:43:46;-3.00;90.60
42095;DHT22;27753;55.724;37.612;2023-02-17T12:46:26;-3.00;90.70
42095;DHT22;27753;55.724;37.612;2023-02-17T12:48:57;-2.90;90.80
42095;DHT22;27753;55.724;37.612;2023-02-17T12:54:14;-2.80;90.70
42095;DHT22;27753;55.724;37.612;2023-02-17T12:56:54;-2.80;90.80
42095;DHT22;27753;55.724;37.612;2023-02-17T13:02:21;-2.60;90.90
42095;DHT22;27753;55.724;37.612;2023-02-17T13:04:54;-2.50;90.80
42095;DHT22;27753;55.724;37.612;2023-02-17T13:07:52;-2.60;90.50
42095;DHT22;27753;55.724;37.612;2023-02-17T13:10:33;-2.80;90.70
42095;DHT22;27753;55.724;37.612;2023-02-17T13:13:11;-2.80;90.70
42095;DHT22;27753;55.724;37.612;2023-02-17T13:15:40;-2.70;90.60
42095;DHT22;27753;55.724;37.612;2023-02-17T13:18:36;-2.60;90.50
42095;DHT22;27753;55.724;37.612;2023-02-17T13:24:15;-2.70;90.40
42095;DHT22;27753;55.724;37.612;2023-02-17T13:26:42;-2.60;90.50
42095;DHT22;27753;55.724;37.612;2023-02-17T13:34:41;-2.50;90.20
42095;DHT22;27753;55.724;37.612;2023-02-17T13:37:22;-2.40;90.40
42095;DHT22;27753;55.724;37.612;2023-02-17T13:39:49;-2.40;90.40
42095;DHT22;27753;55.724;37.612;2023-02-17T13:44:59;-2.30;90.10
42095;DHT22;27753;55.724;37.612;2023-02-17T13:47:33;-2.30;90.20
42095;DHT22;27753;55.724;37.612;2023-02-17T13:50:00;-2.30;90.20
42095;DHT22;27753;55.724;37.612;2023-02-17T13:52:28;-2.30;90.20
42095;DHT22;27753;55.724;37.612;2023-02-17T13:55:00;-2.30;90.10
42095;DHT22;27753;55.724;37.612;2023-02-17T13:57:29;-2.30;90.20
42095;DHT22;27753;55.724;37.612;2023-02-17T14:02:32;-2.30;89.40
42095;DHT22;27753;55.724;37.612;2023-02-17T14:05:18;-2.70;88.60
42095;DHT22;27753;55.724;37.612;2023-02-17T14:07:47;-3.00;89.90
42095;DHT22;27753;55.724;37.612;2023-02-17T14:10:22;-3.10;90.30
42095;DHT22;27753;55.724;37.612;2023-02-17T14:12:51;-3.00;90.50
42095;DHT22;27753;55.724;37.612;2023-02-17T14:15:19;-2.90;90.60
42095;DHT22;27753;55.724;37.612;2023-02-17T14:17:45;-2.90;90.70
42095;DHT22;27753;55.724;37.612;2023-02-17T14:20:33;-2.80;90.70
42095;DHT22;27753;55.724;37.612;2023-02-17T14:25:29;-2.70;90.50
42095;DHT22;27753;55.724;37.612;2023-02-17T14:27:55;-2.80;90.40
42095;DHT22;27753;55.724;37.612;2023-02-17T14:30:36;-2.80;90.60
42095;DHT22;27753;55.724;37.612;2023-02-17T14:33:03;-2.80;90.80
42095;DHT22;27753;55.724;37.612;2023-02-17T14:35:29;-2.80;90.80
42095;DHT22;27753;55.724;37.612;2023-02-17T14:38:06;-2.70;90.80
42095;DHT22;27753;55.724;37.612;2023-02-17T14:40:35;-2.70;90.70
42095;DHT22;27753;55.724;37.612;2023-02-17T14:43:01;-2.80;90.50
42095;DHT22;27753;55.724;37.612;2023-02-17T14:45:27;-2.90;90.60
42095;DHT22;27753;55.724;37.612;2023-02-17T14:47:53;-3.00;90.70
42095;DHT22;27753;55.724;37.612;2023-02-17T14:50:20;-3.00;90.70
42095;DHT22;27753;55.724;37.612;2023-02-17T14:52:47;-3.20;90.70
42095;DHT22;27753;55.724;37.612;2023-02-17T14:55:35;-3.40;91.00
42095;DHT22;27753;55.724;37.612;2023-02-17T14:58:04;-3.60;91.30
42095;DHT22;27753;55.724;37.612;2023-02-17T15:00:30;-3.70;91.50
42095;DHT22;27753;55.724;37.612;2023-02-17T15:02:56;-3.60;91.60
42095;DHT22;27753;55.724;37.612;2023-02-17T15:05:22;-3.50;91.60
42095;DHT22;27753;55.724;37.612;2023-02-17T15:08:01;-3.50;91.60
42095;DHT22;27753;55.724;37.612;2023-02-17T15:10:36;-3.60;91.60
42095;DHT22;27753;55.724;37.612;2023-02-17T15:13:04;-3.60;91.70
42095;DHT22;27753;55.724;37.612;2023-02-17T15:15:30;-3.60;91.80
42095;DHT22;27753;55.724;37.612;2023-02-17T15:17:56;-3.60;91.80
42095;DHT22;27753;55.724;37.612;2023-02-17T15:20:22;-3.60;91.80
42095;DHT22;27753;55.724;37.612;2023-02-17T15:22:49;-3.60;91.90
42095;DHT22;27753;55.724;37.612;2023-02-17T15:25:19;-3.60;92.00
42095;DHT22;27753;55.724;37.612;2023-02-17T15:27:47;-3.50;92.00
42095;DHT22;27753;55.724;37.612;2023-02-17T15:30:17;-3.40;91.90
42095;DHT22;27753;55.724;37.612;2023-02-17T15:32:43;-3.40;91.90
42095;DHT22;27753;55.724;37.612;2023-02-17T15:35:21;-3.50;91.60
42095;DHT22;27753;55.724;37.612;2023-02-17T15:37:50;-3.60;91.70
42095;DHT22;27753;55.724;37.612;2023-02-17T15:40:21;-3.60;91.90
42095;DHT22;27753;55.724;37.612;2023-02-17T15:43:00;-3.70;92.00
42095;DHT22;27753;55.724;37.612;2023-02-17T15:45:29;-3.80;92.00
42095;DHT22;27753;55.724;37.612;2023-02-17T15:48:05;-3.80;92.10
42095;DHT22;27753;55.724;37.612;2023-02-17T15:50:32;-3.90;92.20
42095;DHT22;27753;55.724;37.612;2023-02-17T15:52:58;-3.90;92.20
42095;DHT22;27753;55.724;37.612;2023-02-17T15:55:27;-4.00;92.50
42095;DHT22;27753;55.724;37.612;2023-02-17T15:57:56;-4.10;92.50
42095;DHT22;27753;55.724;37.612;2023-02-17T16:00:30;-4.10;92.60
42095;DHT22;27753;55.724;37.612;2023-02-17T16:02:56;-4.10;92.80
42095;DHT22;27753;55.724;37.612;2023-02-17T16:05:26;-4.10;92.80
42095;DHT22;27753;55.724;37.612;2023-02-17T16:07:55;-4.10;92.90
42095;DHT22;27753;55.724;37.612;2023-02-17T16:10:23;-4.10;92.90
42095;DHT22;27753;55.724;37.612;2023-02-17T16:12:55;-4.10;92.90
42095;DHT22;27753;55.724;37.612;2023-02-17T16:15:23;-4.10;92.90
42095;DHT22;27753;55.724;37.612;2023-02-17T16:17:53;-4.10;92.90
42095;DHT22;27753;55.724;37.612;2023-02-17T16:20:24;-4.10;93.00
42095;DHT22;27753;55.724;37.612;2023-02-17T16:22:50;-4.10;93.00
42095;DHT22;27753;55.724;37.612;2023-02-17T16:25:17;-4.10;93.00
42095;DHT22;27753;55.724;37.612;2023-02-17T16:27:45;-4.20;92.90
42095;DHT22;27753;55.724;37.612;2023-02-17T16:30:34;-4.20;92.90
42095;DHT22;27753;55.724;37.612;2023-02-17T16:33:01;-4.20;93.00
42095;DHT22;27753;55.724;37.612;2023-02-17T16:35:29;-4.30;93.00
42095;DHT22;27753;55.724;37.612;2023-02-17T16:37:59;-4.30;93.10
42095;DHT22;27753;55.724;37.612;2023-02-17T16:40:28;-4.30;93.10
42095;DHT22;27753;55.724;37.612;2023-02-17T16:42:55;-4.30;93.10
42095;DHT22;27753;55.724;37.612;2023-02-17T16:45:23;-4.30;93.20
42095;DHT22;27753;55.724;37.612;2023-02-17T16:47:52;-4.30;93.20
42095;DHT22;27753;55.724;37.612;2023-02-17T16:50:37;-4.30;93.30
42095;DHT22;27753;55.724;37.612;2023-02-17T16:53:06;-4.30;93.20
42095;DHT22;27753;55.724;37.612;2023-02-17T16:55:34;-4.20;93.20
42095;DHT22;27753;55.724;37.612;2023-02-17T16:58:02;-4.30;93.20
42095;DHT22;27753;55.724;37.612;2023-02-17T17:00:29;-4.30;93.20
42095;DHT22;27753;55.724;37.612;2023-02-17T17:02:56;-4.30;93.10
42095;DHT22;27753;55.724;37.612;2023-02-17T17:05:23;-4.30;93.10
42095;DHT22;27753;55.724;37.612;2023-02-17T17:07:49;-4.40;93.10
42095;DHT22;27753;55.724;37.612;2023-02-17T17:10:21;-4.40;93.20
42095;DHT22;27753;55.724;37.612;2023-02-17T17:12:47;-4.30;93.30
42095;DHT22;27753;55.724;37.612;2023-02-17T17:15:14;-4.40;93.30
42095;DHT22;27753;55.724;37.612;2023-02-17T17:20:20;-4.40;93.20
42095;DHT22;27753;55.724;37.612;2023-02-17T17:22:48;-4.40;93.30
42095;DHT22;27753;55.724;37.612;2023-02-17T17:25:16;-4.40;93.30